Time;durP1;ratioP1;P1;durP2;ratioP2;P2;SDS_P1;SDS_P2;PMS_P1;PMS_P2;Temp;Humidity;BMP_temperature;BMP_pressure;BME280_temperature;BME280_humidity;BME280_pressure;Samples;Min_cycle;Max_cycle;Signal;HPM_P1;HPM_P2
2022/03/15 00:01:54;;;;;;;29.35;16.00;;;;;;;4.30;39.19;101573.38;4472698;32;32827;-82
2022/03/15 00:04:23;;;;;;;27.80;14.48;;;;;;;4.24;39.46;101568.44;4485453;32;34147;-81
2022/03/15 00:06:53;;;;;;;32.55;14.68;;;;;;;4.38;38.87;101566.47;4472767;32;33276;-82
2022/03/15 00:09:23;;;;;;;31.27;15.23;;;;;;;4.24;39.10;101562.13;4472832;32;34054;-81
2022/03/15 00:11:53;;;;;;;30.17;16.55;;;;;;;4.34;38.89;101549.53;4473185;32;34319;-80
2022/03/15 00:14:23;;;;;;;34.35;17.70;;;;;;;4.29;39.09;101560.78;4472985;32;33324;-81
2022/03/15 00:16:57;;;;;;;28.42;14.70;;;;;;;4.26;39.19;101560.16;4485994;32;34283;-82
2022/03/15 00:19:25;;;;;;;27.62;14.52;;;;;;;4.34;39.19;101559.53;4472946;32;32317;-82
2022/03/15 00:21:56;;;;;;;27.42;13.38;;;;;;;4.25;39.21;101556.56;4472815;32;34433;-81
2022/03/15 00:24:24;;;;;;;26.35;13.07;;;;;;;4.23;39.31;101549.53;4473060;32;34543;-80
2022/03/15 00:26:54;;;;;;;28.67;14.43;;;;;;;4.23;39.18;101542.25;4472635;32;31917;-81
2022/03/15 00:29:23;;;;;;;35.45;17.62;;;;;;;4.19;39.24;101540.75;4473223;32;33950;-81
2022/03/15 00:31:51;;;;;;;32.20;16.00;;;;;;;4.21;39.32;101532.47;4472841;32;33924;-80
2022/03/15 00:34:20;;;;;;;28.75;14.82;;;;;;;4.25;39.32;101528.53;4472810;32;34018;-81
2022/03/15 00:36:48;;;;;;;28.60;15.45;;;;;;;4.36;39.26;101531.25;4485537;32;33339;-81
2022/03/15 00:39:17;;;;;;;26.42;15.82;;;;;;;4.17;39.50;101540.00;4472716;32;33720;-82
2022/03/15 00:41:48;;;;;;;32.13;15.90;;;;;;;4.25;39.52;101542.97;4459518;32;32807;-82
2022/03/15 00:44:16;;;;;;;32.10;17.73;;;;;;;4.30;39.36;101537.19;4472591;32;32531;-81
2022/03/15 00:46:44;;;;;;;30.25;15.60;;;;;;;4.30;39.14;101535.31;4472535;32;33278;-82
2022/03/15 00:49:12;;;;;;;34.05;17.75;;;;;;;4.27;39.45;101542.84;4472511;32;32212;-81
2022/03/15 00:51:40;;;;;;;55.12;23.70;;;;;;;4.11;39.76;101537.78;4485708;32;34402;-81
2022/03/15 00:54:08;;;;;;;41.37;17.27;;;;;;;4.06;39.83;101544.56;4472413;32;32844;-81
2022/03/15 00:56:38;;;;;;;46.55;19.08;;;;;;;4.10;39.98;101555.06;4446764;32;33174;-81
2022/03/15 00:59:07;;;;;;;45.33;19.02;;;;;;;4.00;40.21;101545.91;4472458;32;33616;-81
2022/03/15 01:01:36;;;;;;;34.97;16.30;;;;;;;4.12;40.27;101547.66;4485112;32;35155;-81
2022/03/15 01:04:08;;;;;;;32.35;15.77;;;;;;;4.00;40.43;101540.47;4473108;32;34696;-81
2022/03/15 01:06:37;;;;;;;52.10;21.75;;;;;;;3.94;40.83;101530.97;4485382;32;33214;-80
2022/03/15 01:09:09;;;;;;;44.85;20.48;;;;;;;4.08;40.38;101518.13;4460733;32;32987;-81
2022/03/15 01:11:37;;;;;;;37.55;18.23;;;;;;;4.13;40.33;101511.34;4472476;32;33845;-80
2022/03/15 01:14:05;;;;;;;32.95;14.45;;;;;;;4.15;40.15;101503.94;4471984;32;34585;-79
2022/03/15 01:16:33;;;;;;;35.38;16.15;;;;;;;4.10;40.33;101503.44;4472336;32;34199;-79
2022/03/15 01:19:06;;;;;;;33.53;16.15;;;;;;;3.92;40.67;101505.78;4485027;32;33387;-80
2022/03/15 01:21:35;;;;;;;30.80;15.65;;;;;;;4.14;40.37;101507.66;4472615;32;32900;-81
2022/03/15 01:24:07;;;;;;;36.90;15.65;;;;;;;4.22;40.30;101502.47;4472852;32;32461;-77
2022/03/15 01:26:38;;;;;;;27.80;13.95;;;;;;;4.17;40.34;101498.37;4472716;32;34093;-89
2022/03/15 01:29:06;;;;;;;26.95;14.25;;;;;;;4.13;40.27;101497.75;4459417;32;33392;-78
2022/03/15 01:31:34;;;;;;;27.35;13.40;;;;;;;4.15;40.41;101495.78;4485490;32;35269;-79
2022/03/15 01:34:07;;;;;;;31.33;12.65;;;;;;;4.13;40.47;101500.47;4485353;32;34173;-79
2022/03/15 01:36:38;;;;;;;24.65;12.93;;;;;;;4.17;40.19;101495.66;4485190;32;33037;-80
2022/03/15 01:39:09;;;;;;;27.27;14.68;;;;;;;4.14;40.15;101494.06;4472229;32;33651;-79
2022/03/15 01:41:40;;;;;;;29.05;14.07;;;;;;;4.18;40.06;101495.53;4484959;32;34679;-79
2022/03/15 01:44:17;;;;;;;26.80;13.95;;;;;;;4.17;40.19;101501.97;4471993;32;34700;-79
2022/03/15 01:46:49;;;;;;;23.87;13.15;;;;;;;4.00;40.78;101498.88;4471722;32;33052;-79
2022/03/15 01:49:18;;;;;;;28.60;16.58;;;;;;;4.22;40.54;101499.75;4471132;32;32318;-79
2022/03/15 01:51:49;;;;;;;34.13;19.85;;;;;;;4.16;40.45;101502.94;4484407;32;34331;-80
2022/03/15 01:54:20;;;;;;;41.67;26.23;;;;;;;4.10;40.32;101516.16;4471710;32;32772;-80
2022/03/15 01:56:47;;;;;;;32.83;20.17;;;;;;;4.04;40.30;101516.66;4484917;32;33272;-79
2022/03/15 01:59:16;;;;;;;29.15;16.02;;;;;;;3.94;40.31;101511.09;4471919;32;34675;-80
2022/03/15 02:01:48;;;;;;;31.08;14.73;;;;;;;4.11;40.28;101515.19;4472325;32;35227;-80
2022/03/15 02:04:16;;;;;;;25.88;14.63;;;;;;;4.10;40.43;101514.31;4483944;32;34071;-80
2022/03/15 02:06:50;;;;;;;22.00;12.25;;;;;;;4.14;40.29;101507.66;4471986;32;33210;-79
2022/03/15 02:09:17;;;;;;;20.08;9.95;;;;;;;3.96;40.80;101509.09;4485016;32;33596;-80
2022/03/15 02:11:48;;;;;;;26.33;12.52;;;;;;;3.92;40.90;101507.63;4472002;32;34537;-79
2022/03/15 02:14:18;;;;;;;24.37;10.93;;;;;;;3.94;40.85;101497.50;4484661;32;32524;-79
2022/03/15 02:16:45;;;;;;;27.00;13.10;;;;;;;3.94;40.61;101492.94;4472246;32;33262;-79
2022/03/15 02:19:13;;;;;;;24.50;12.80;;;;;;;3.91;40.76;101498.59;4484714;32;34747;-80
2022/03/15 02:21:41;;;;;;;21.00;10.82;;;;;;;3.98;40.73;101499.84;4459016;32;33884;-79
2022/03/15 02:24:09;;;;;;;22.27;10.23;;;;;;;3.98;40.95;101493.56;4471897;32;33061;-79
2022/03/15 02:26:36;;;;;;;23.58;11.50;;;;;;;3.93;40.99;101501.19;4471782;32;33223;-79
2022/03/15 02:29:04;;;;;;;22.10;11.60;;;;;;;3.80;41.43;101495.03;4471752;32;33216;-79
2022/03/15 02:31:32;;;;;;;23.83;10.88;;;;;;;3.86;40.97;101495.44;4484571;32;35366;-79
2022/03/15 02:33:59;;;;;;;26.77;11.30;;;;;;;3.79;41.10;101490.59;4471278;32;33810;-79
2022/03/15 02:36:27;;;;;;;21.02;10.98;;;;;;;3.80;40.92;101495.91;4484699;32;33688;-79
2022/03/15 02:38:58;;;;;;;22.85;11.12;;;;;;;3.86;41.12;101510.84;4471769;32;32215;-79
2022/03/15 02:41:25;;;;;;;23.20;10.98;;;;;;;3.67;41.30;101513.28;4471512;32;35176;-79
2022/03/15 02:43:56;;;;;;;20.30;10.57;;;;;;;3.57;41.30;101510.41;4459010;32;33455;-80
2022/03/15 02:46:29;;;;;;;17.45;10.32;;;;;;;3.71;40.96;101510.22;4459301;32;31808;-79
2022/03/15 02:49:04;;;;;;;16.65;9.77;;;;;;;3.63;40.98;101512.66;4471642;32;31557;-79
2022/03/15 02:51:32;;;;;;;25.25;10.45;;;;;;;3.72;41.06;101513.78;4471537;32;34060;-79
2022/03/15 02:54:13;;;;;;;16.87;9.07;;;;;;;3.80;40.87;101514.06;4484511;32;34576;-79
2022/03/15 02:56:43;;;;;;;19.27;10.05;;;;;;;3.71;41.01;101514.78;4471698;32;31902;-79
2022/03/15 02:59:13;;;;;;;22.10;9.85;;;;;;;3.82;40.84;101521.09;4484343;32;33676;-79
2022/03/15 03:01:45;;;;;;;21.00;10.13;;;;;;;3.73;41.17;101520.94;4484611;32;34443;-79
2022/03/15 03:04:15;;;;;;;21.50;10.88;;;;;;;3.73;41.13;101512.81;4471958;32;34039;-80
2022/03/15 03:06:46;;;;;;;21.52;11.05;;;;;;;3.70;41.27;101515.75;4471757;32;32781;-80
2022/03/15 03:09:16;;;;;;;26.65;13.38;;;;;;;3.80;40.92;101512.19;4483588;32;34130;-79
2022/03/15 03:11:44;;;;;;;28.60;14.10;;;;;;;3.58;41.16;101512.16;4484442;32;34462;-79
2022/03/15 03:14:16;;;;;;;29.35;14.73;;;;;;;3.47;41.42;101515.69;4484461;32;33860;-79
2022/03/15 03:16:44;;;;;;;24.80;13.70;;;;;;;3.60;41.35;101500.19;4482900;32;32783;-79
2022/03/15 03:19:12;;;;;;;26.30;13.82;;;;;;;3.55;41.39;101513.25;4471400;32;33669;-78
2022/03/15 03:21:40;;;;;;;28.77;14.05;;;;;;;3.68;41.07;101506.88;4484219;32;35128;-79
2022/03/15 03:24:09;;;;;;;24.10;12.07;;;;;;;3.60;41.16;101502.03;4484313;32;34632;-79
2022/03/15 03:26:41;;;;;;;22.58;12.48;;;;;;;3.58;41.34;101509.44;4484182;32;33638;-79
2022/03/15 03:29:14;;;;;;;24.83;12.60;;;;;;;3.40;41.59;101508.13;4471877;32;33700;-79
2022/03/15 03:31:46;;;;;;;18.20;11.02;;;;;;;3.39;41.52;101501.84;4458777;32;33898;-78
2022/03/15 03:34:15;;;;;;;22.73;10.23;;;;;;;3.35;41.69;101505.78;4471447;32;32966;-80
2022/03/15 03:36:42;;;;;;;21.27;11.23;;;;;;;3.44;41.75;101507.78;4471518;32;33284;-78
2022/03/15 03:39:33;;;;;;;20.85;10.63;;;;;;;3.33;41.87;101509.59;4484223;32;34574;-78
2022/03/15 03:42:05;;;;;;;18.98;10.68;;;;;;;3.44;41.46;101512.34;4484346;32;35031;-79
2022/03/15 03:44:34;;;;;;;16.83;9.63;;;;;;;3.39;41.40;101519.97;4471691;32;34857;-78
2022/03/15 03:47:03;;;;;;;23.10;11.35;;;;;;;3.45;41.13;101508.66;4458251;32;31724;-78
2022/03/15 03:49:32;;;;;;;21.85;11.00;;;;;;;3.51;41.10;101522.63;4484101;32;33325;-79
2022/03/15 03:52:02;;;;;;;19.87;10.65;;;;;;;3.44;41.24;101510.50;4471025;32;32938;-78
2022/03/15 03:54:33;;;;;;;20.73;10.00;;;;;;;3.39;41.33;101514.56;4471104;32;33846;-79
2022/03/15 03:57:05;;;;;;;17.85;10.27;;;;;;;3.32;41.29;101519.59;4483904;32;33478;-78
2022/03/15 03:59:32;;;;;;;19.33;10.38;;;;;;;3.25;41.23;101521.06;4470756;32;33697;-79
2022/03/15 04:02:00;;;;;;;19.27;10.48;;;;;;;3.31;41.35;101523.28;4470802;32;32961;-78
2022/03/15 04:04:28;;;;;;;17.60;10.13;;;;;;;3.21;41.69;101527.72;4482878;32;33399;-78
2022/03/15 04:06:57;;;;;;;18.48;9.43;;;;;;;3.03;41.69;101529.97;4483773;32;33380;-78
2022/03/15 04:09:26;;;;;;;20.05;9.38;;;;;;;3.03;41.54;101521.81;4471011;32;33600;-78
2022/03/15 04:11:56;;;;;;;19.83;10.00;;;;;;;3.05;41.72;101527.12;4483648;32;34425;-78
2022/03/15 04:14:24;;;;;;;18.30;10.02;;;;;;;3.15;41.91;101514.59;4470696;32;33979;-78
2022/03/15 04:16:51;;;;;;;19.62;9.35;;;;;;;3.10;42.07;101522.22;4470437;32;33351;-80
2022/03/15 04:19:20;;;;;;;17.67;9.60;;;;;;;3.17;41.79;101512.63;4483420;32;34834;-79
2022/03/15 04:21:50;;;;;;;17.62;9.35;;;;;;;3.16;42.23;101516.34;4457883;32;34149;-79
2022/03/15 04:24:21;;;;;;;21.12;9.40;;;;;;;3.11;42.06;101523.97;4483436;32;34675;-79
2022/03/15 04:26:49;;;;;;;17.52;8.70;;;;;;;3.09;42.27;101521.37;4471076;32;32943;-78
2022/03/15 04:29:17;;;;;;;21.75;10.65;;;;;;;3.14;42.15;101512.88;4485658;32;34389;-79
2022/03/15 04:31:47;;;;;;;31.33;15.18;;;;;;;3.15;42.23;101528.16;4472707;32;35174;-78
2022/03/15 04:34:17;;;;;;;27.35;13.62;;;;;;;2.91;42.45;101528.16;4485848;32;34121;-78
2022/03/15 04:36:47;;;;;;;23.35;12.25;;;;;;;3.08;42.13;101526.91;4485667;32;33455;-78
2022/03/15 04:39:15;;;;;;;20.55;11.30;;;;;;;2.95;42.24;101530.53;4472534;32;33216;-79
2022/03/15 04:41:45;;;;;;;19.83;10.38;;;;;;;3.03;42.02;101542.66;4459748;32;32936;-78
2022/03/15 04:44:13;;;;;;;25.40;11.32;;;;;;;3.00;41.99;101540.16;4485455;32;33366;-78
2022/03/15 04:46:45;;;;;;;27.15;12.32;;;;;;;2.89;42.34;101541.84;4485533;32;33815;-78
2022/03/15 04:49:13;;;;;;;22.10;10.82;;;;;;;2.87;42.32;101542.94;4472519;32;33970;-78
2022/03/15 04:51:44;;;;;;;23.90;11.63;;;;;;;2.86;42.39;101539.34;4485274;32;34185;-78
2022/03/15 04:54:11;;;;;;;21.23;10.85;;;;;;;2.91;42.38;101533.59;4485483;32;34739;-77
2022/03/15 04:56:39;;;;;;;20.92;11.93;;;;;;;2.88;42.58;101542.81;4472545;32;33003;-78
2022/03/15 04:59:09;;;;;;;21.52;11.40;;;;;;;3.01;42.13;101542.78;4485285;32;33638;-78
2022/03/15 05:01:36;;;;;;;24.37;13.43;;;;;;;2.99;42.07;101539.31;4472743;32;35260;-78
2022/03/15 05:04:04;;;;;;;25.60;12.75;;;;;;;2.64;42.68;101545.50;4484981;32;33396;-78
2022/03/15 05:06:33;;;;;;;30.42;14.50;;;;;;;2.73;42.76;101552.09;4472182;32;33364;-78
2022/03/15 05:09:05;;;;;;;23.87;12.52;;;;;;;2.73;42.78;101543.94;4459828;32;32766;-78
2022/03/15 05:11:44;;;;;;;21.42;11.50;;;;;;;2.76;42.55;101546.44;4472529;32;34438;-78
2022/03/15 05:14:17;;;;;;;27.45;12.65;;;;;;;2.84;42.88;101545.87;4473608;32;34626;-78
2022/03/15 05:16:45;;;;;;;30.48;13.52;;;;;;;2.78;42.90;101551.75;4485393;32;33433;-78
2022/03/15 05:19:15;;;;;;;23.85;13.18;;;;;;;2.89;42.58;101551.81;4472574;32;34495;-80
2022/03/15 05:21:43;;;;;;;22.05;12.37;;;;;;;2.84;42.73;101538.59;4459485;32;33016;-78
2022/03/15 05:24:13;;;;;;;21.45;12.25;;;;;;;2.85;42.86;101550.31;4472141;32;34010;-78
2022/03/15 05:26:41;;;;;;;24.92;12.50;;;;;;;2.85;42.80;101547.59;4485163;32;33319;-78
2022/03/15 05:29:09;;;;;;;24.05;11.23;;;;;;;2.94;42.58;101544.22;4484987;32;32460;-78
2022/03/15 05:31:37;;;;;;;31.00;11.25;;;;;;;2.84;42.90;101544.03;4472424;32;35218;-78
2022/03/15 05:34:04;;;;;;;21.98;11.15;;;;;;;2.80;43.17;101541.66;4485166;32;34770;-78
2022/03/15 05:36:32;;;;;;;20.83;11.40;;;;;;;2.84;42.98;101548.56;4472142;32;33412;-79
2022/03/15 05:39:02;;;;;;;22.45;10.85;;;;;;;2.81;43.00;101544.25;4471324;32;32215;-78
2022/03/15 05:41:29;;;;;;;24.67;11.57;;;;;;;2.92;42.88;101541.59;4472318;32;33831;-78
2022/03/15 05:43:57;;;;;;;23.30;11.98;;;;;;;2.97;42.82;101549.41;4472289;32;34188;-79
2022/03/15 05:46:28;;;;;;;21.00;11.55;;;;;;;3.03;42.70;101538.09;4472245;32;33165;-78
2022/03/15 05:48:57;;;;;;;21.73;11.52;;;;;;;3.17;42.44;101542.47;4485164;32;34705;-78
2022/03/15 05:51:25;;;;;;;24.77;11.95;;;;;;;3.18;42.60;101549.63;4485239;32;34376;-79
2022/03/15 05:53:53;;;;;;;20.88;10.82;;;;;;;3.29;42.42;101539.69;4486183;32;34122;-78
2022/03/15 05:56:22;;;;;;;19.92;10.90;;;;;;;3.34;42.46;101546.59;4472248;32;33374;-80
2022/03/15 05:58:50;;;;;;;20.58;10.65;;;;;;;3.49;42.31;101535.44;4472134;32;33845;-79
2022/03/15 06:01:17;;;;;;;21.23;10.93;;;;;;;3.61;42.12;101544.47;4471462;32;35034;-79
2022/03/15 06:03:48;;;;;;;22.10;11.90;;;;;;;3.60;42.30;101543.62;4471902;32;32540;-80
2022/03/15 06:06:21;;;;;;;18.30;10.93;;;;;;;3.67;42.37;101543.16;4472368;32;34155;-80
2022/03/15 06:08:50;;;;;;;21.10;11.70;;;;;;;3.73;42.38;101537.25;4484977;32;33763;-79
2022/03/15 06:11:19;;;;;;;21.80;12.45;;;;;;;4.00;42.06;101540.47;4472264;32;35215;-79
2022/03/15 06:13:49;;;;;;;24.02;12.55;;;;;;;4.36;54.53;101541.25;4484987;32;33850;-79
2022/03/15 06:16:20;;;;;;;21.42;11.35;;;;;;;4.51;48.42;101542.75;4472275;32;33060;-79
2022/03/15 06:18:50;;;;;;;22.20;13.50;;;;;;;4.59;44.91;101538.37;4471965;32;34497;-80
2022/03/15 06:21:18;;;;;;;24.48;14.05;;;;;;;4.56;42.76;101537.75;4472144;32;34674;-80
2022/03/15 06:23:46;;;;;;;22.55;12.88;;;;;;;4.56;41.57;101541.34;4471880;32;32431;-79
2022/03/15 06:26:39;;;;;;;22.90;13.10;;;;;;;4.49;40.80;101536.56;4463751;32;32828;-79
2022/03/15 06:29:09;;;;;;;21.65;12.07;;;;;;;4.88;40.58;101544.16;4484806;32;33882;-79
2022/03/15 06:31:44;;;;;;;24.02;13.10;;;;;;;5.08;40.16;101545.22;4485782;32;35256;-79
2022/03/15 06:34:32;;;;;;;25.55;14.00;;;;;;;5.32;40.15;101555.87;4474010;32;33441;-77
2022/03/15 06:37:07;;;;;;;25.62;15.80;;;;;;;5.46;40.36;101554.72;4472127;32;33121;-80
2022/03/15 06:39:40;;;;;;;25.67;14.43;;;;;;;5.61;40.20;101557.00;4485414;32;33844;-80
2022/03/15 06:42:10;;;;;;;26.42;15.02;;;;;;;5.78;40.26;101552.81;4471675;32;32941;-79
2022/03/15 06:44:41;;;;;;;27.20;16.02;;;;;;;5.94;40.52;101544.19;4468142;32;32533;-78
2022/03/15 06:47:09;;;;;;;28.33;15.77;;;;;;;6.08;40.26;101540.25;4456531;32;34456;-79
2022/03/15 06:49:37;;;;;;;27.95;16.45;;;;;;;6.39;39.60;101539.28;4456219;32;33679;-79
2022/03/15 06:52:05;;;;;;;31.45;16.05;;;;;;;6.66;38.58;101541.38;4481484;32;34601;-79
2022/03/15 06:54:33;;;;;;;30.58;16.90;;;;;;;7.06;38.10;101529.56;4454818;32;32494;-79
2022/03/15 06:57:03;;;;;;;27.87;16.77;;;;;;;7.36;37.54;101523.97;4455894;32;33385;-80
2022/03/15 06:59:33;;;;;;;29.85;17.17;;;;;;;7.62;37.21;101516.06;4468496;32;33789;-79
2022/03/15 07:02:03;;;;;;;33.22;18.45;;;;;;;7.85;36.78;101513.84;4456236;32;33359;-79
2022/03/15 07:04:31;;;;;;;32.70;17.83;;;;;;;8.01;36.24;101516.81;4468756;32;34638;-76
2022/03/15 07:07:02;;;;;;;31.73;18.83;;;;;;;8.39;35.83;101513.16;4455886;32;33385;-79
2022/03/15 07:09:29;;;;;;;34.22;17.73;;;;;;;8.73;34.83;101505.19;4465209;32;32086;-78
2022/03/15 07:12:14;;;;;;;36.03;19.23;;;;;;;8.83;34.40;101505.13;4468168;32;34141;-77
2022/03/15 07:14:49;;;;;;;32.75;17.98;;;;;;;8.95;33.66;101500.31;4456333;32;33818;-77
2022/03/15 07:17:18;;;;;;;35.75;17.60;;;;;;;9.17;32.99;101502.56;4463978;32;31796;-77
2022/03/15 07:19:47;;;;;;;32.42;18.02;;;;;;;9.53;33.26;101495.22;4478837;32;34523;-76
2022/03/15 07:22:33;;;;;;;33.17;22.40;;;;;;;9.68;32.69;101495.53;4468948;32;35405;-76
2022/03/15 07:25:01;;;;;;;28.48;15.27;;;;;;;10.18;31.89;101499.28;4465158;32;32582;-76
2022/03/15 07:27:30;;;;;;;29.52;17.02;;;;;;;10.79;33.94;101498.22;4447062;32;32763;-77
2022/03/15 07:29:58;;;;;;;29.33;17.08;;;;;;;10.98;30.15;101496.22;4466388;31;32703;-77
2022/03/15 07:32:26;;;;;;;26.77;15.23;;;;;;;11.04;29.66;101492.81;4475551;31;34276;-77
2022/03/15 07:34:53;;;;;;;31.10;15.80;;;;;;;11.15;28.81;101498.81;4467139;31;32000;-77
2022/03/15 07:37:23;;;;;;;129.93;52.25;;;;;;;11.25;28.20;101493.19;4463383;31;32882;-76
2022/03/15 07:39:51;;;;;;;28.58;14.68;;;;;;;11.61;43.84;101498.37;4464030;31;34692;-76
2022/03/15 07:42:19;;;;;;;22.83;15.02;;;;;;;11.95;28.58;101495.44;4473105;31;33850;-77
2022/03/15 07:44:47;;;;;;;25.52;15.32;;;;;;;11.61;27.03;101496.50;4473330;31;34104;-78
2022/03/15 07:47:17;;;;;;;25.85;15.85;;;;;;;11.87;27.81;101499.06;4472873;31;32147;-79
2022/03/15 07:49:47;;;;;;;28.33;16.17;;;;;;;12.12;26.52;101500.75;4473075;31;34560;-79
2022/03/15 07:52:15;;;;;;;25.58;14.98;;;;;;;12.42;26.44;101499.13;4486436;31;34561;-79
2022/03/15 07:54:42;;;;;;;25.80;15.93;;;;;;;12.56;26.92;101497.53;4473375;31;34576;-79
2022/03/15 07:57:10;;;;;;;29.00;15.30;;;;;;;12.42;26.19;101495.50;4486303;31;34070;-79
2022/03/15 07:59:40;;;;;;;35.72;20.42;;;;;;;12.52;25.99;101502.53;4473127;31;33323;-79
2022/03/15 08:02:10;;;;;;;61.83;42.80;;;;;;;12.69;27.31;101500.56;4467836;32;34266;-79
2022/03/15 08:04:41;;;;;;;86.60;55.42;;;;;;;12.78;27.27;101498.66;4472437;32;34179;-79
2022/03/15 08:07:09;;;;;;;47.58;28.75;;;;;;;13.14;26.36;101498.94;4472598;32;31653;-78
2022/03/15 08:09:38;;;;;;;43.47;25.48;;;;;;;13.35;26.16;101496.44;4485538;32;33910;-78
2022/03/15 08:12:06;;;;;;;40.72;28.62;;;;;;;13.52;26.85;101506.31;4459823;32;32888;-79
2022/03/15 08:14:34;;;;;;;30.85;19.35;;;;;;;13.89;25.74;101495.47;4473089;32;33628;-79
2022/03/15 08:17:03;;;;;;;29.40;17.00;;;;;;;14.10;24.92;101502.00;4472845;32;31633;-77
2022/03/15 08:19:31;;;;;;;25.33;16.52;;;;;;;14.25;25.49;101490.97;4469991;31;32285;-78
2022/03/15 08:22:02;;;;;;;30.17;18.25;;;;;;;14.56;24.31;101485.28;4457604;32;34084;-79
2022/03/15 08:24:40;;;;;;;27.40;17.50;;;;;;;14.70;24.85;101486.31;4468744;32;34078;-78
2022/03/15 08:27:10;;;;;;;31.73;17.70;;;;;;;14.80;24.35;101481.34;4477697;31;34183;-78
2022/03/15 08:29:38;;;;;;;30.92;18.50;;;;;;;15.12;24.13;101478.13;4463662;32;32286;-79
2022/03/15 08:32:06;;;;;;;29.42;16.85;;;;;;;14.85;23.71;101480.78;4465374;32;35098;-79
2022/03/15 08:34:34;;;;;;;29.52;15.73;;;;;;;15.06;23.29;101478.88;4476914;32;34989;-78
2022/03/15 08:37:06;;;;;;;27.27;16.55;;;;;;;15.09;23.40;101474.88;4471109;32;33250;-79
2022/03/15 08:39:35;;;;;;;26.33;15.73;;;;;;;15.28;23.61;101477.03;4481654;31;34622;-79
2022/03/15 08:42:03;;;;;;;18.70;12.30;;;;;;;15.22;22.62;101475.03;4465049;31;34597;-79
2022/03/15 08:44:31;;;;;;;23.30;12.48;;;;;;;15.44;21.25;101462.94;4469920;32;34639;-79
2022/03/15 08:46:58;;;;;;;17.60;11.55;;;;;;;15.65;20.29;101464.84;4469354;31;34039;-80
2022/03/15 08:49:29;;;;;;;22.80;12.75;;;;;;;15.89;20.17;101465.47;4464772;31;34482;-79
2022/03/15 08:51:57;;;;;;;23.65;12.80;;;;;;;16.19;20.34;101460.59;4487833;31;35339;-79
2022/03/15 08:54:25;;;;;;;21.80;13.40;;;;;;;16.04;20.72;101449.63;4474685;31;34615;-80
2022/03/15 08:56:53;;;;;;;22.27;12.15;;;;;;;16.29;20.67;101444.44;4474914;31;33051;-79
2022/03/15 08:59:21;;;;;;;23.00;12.68;;;;;;;16.13;20.46;101432.66;4461792;31;32456;-80
2022/03/15 09:01:48;;;;;;;31.70;18.52;;;;;;;16.19;19.86;101431.00;4475041;31;34480;-79
2022/03/15 09:04:17;;;;;;;47.42;28.05;;;;;;;16.18;20.33;101440.34;4467466;32;33556;-79
2022/03/15 09:06:44;;;;;;;19.92;12.77;;;;;;;16.26;20.14;101437.41;4465956;32;33534;-79
2022/03/15 09:09:12;;;;;;;21.77;13.00;;;;;;;16.44;19.74;101434.09;4458838;32;33709;-79
2022/03/15 09:11:41;;;;;;;20.33;12.25;;;;;;;16.27;19.55;101432.72;4471687;32;35084;-79
2022/03/15 09:14:08;;;;;;;25.48;16.73;;;;;;;16.61;19.65;101427.16;4458035;32;32567;-79
2022/03/15 09:16:36;;;;;;;46.15;25.58;;;;;;;16.95;19.34;101428.16;4459004;32;31938;-79
2022/03/15 09:19:04;;;;;;;27.65;21.10;;;;;;;16.97;19.18;101412.16;4484980;32;34382;-79
2022/03/15 09:21:32;;;;;;;25.58;19.33;;;;;;;17.13;18.65;101417.31;4471139;32;34402;-79
2022/03/15 09:24:00;;;;;;;17.50;12.30;;;;;;;17.14;19.19;101416.25;4471924;32;33918;-80
2022/03/15 09:26:34;;;;;;;17.87;11.52;;;;;;;17.34;18.92;101411.59;4471882;32;34091;-82
2022/03/15 09:29:02;;;;;;;20.60;11.30;;;;;;;17.39;18.60;101403.50;4471586;32;33842;-79
2022/03/15 09:31:32;;;;;;;19.30;11.07;;;;;;;17.52;19.10;101396.25;4484686;32;34643;-80
2022/03/15 09:34:17;;;;;;;19.37;10.93;;;;;;;17.41;18.74;101393.03;4473219;32;32438;-79
2022/03/15 09:36:48;;;;;;;20.50;11.23;;;;;;;17.46;18.63;101397.94;4472186;32;33368;-80
2022/03/15 09:39:18;;;;;;;18.12;11.15;;;;;;;17.60;18.28;101387.69;4462518;32;33775;-80
2022/03/15 09:41:50;;;;;;;22.05;14.68;;;;;;;17.71;18.66;101392.63;4465253;32;33966;-80
2022/03/15 09:44:24;;;;;;;22.67;13.73;;;;;;;17.60;18.76;101393.22;4481874;32;34526;-79
2022/03/15 09:46:52;;;;;;;24.40;13.10;;;;;;;17.82;18.67;101386.44;4483289;32;34008;-80
2022/03/15 09:49:28;;;;;;;19.17;11.68;;;;;;;17.93;19.06;101374.66;4459892;32;32109;-80
2022/03/15 09:51:57;;;;;;;21.83;13.48;;;;;;;17.58;19.01;101389.81;4471714;32;34312;-79
2022/03/15 09:54:25;;;;;;;23.15;13.20;;;;;;;17.54;19.01;101383.88;4469902;32;32322;-80
2022/03/15 09:56:54;;;;;;;23.60;13.65;;;;;;;17.69;19.32;101384.50;4471547;32;33525;-79
2022/03/15 09:59:24;;;;;;;18.67;12.48;;;;;;;17.91;19.23;101378.72;4471451;32;32149;-79
2022/03/15 10:01:54;;;;;;;21.70;12.15;;;;;;;17.96;19.11;101379.78;4458772;32;33940;-80
2022/03/15 10:04:25;;;;;;;18.73;12.05;;;;;;;17.90;19.19;101366.75;4471665;32;32498;-79
2022/03/15 10:06:56;;;;;;;40.22;27.42;;;;;;;17.80;18.77;101369.13;4471900;32;32911;-78
2022/03/15 10:09:26;;;;;;;23.12;11.32;;;;;;;18.19;19.15;101364.56;4484544;32;33794;-79
2022/03/15 10:11:57;;;;;;;28.17;16.20;;;;;;;17.95;18.88;101366.13;4470422;32;34061;-78
2022/03/15 10:14:25;;;;;;;22.48;12.05;;;;;;;18.09;18.95;101371.44;4470463;32;34536;-76
2022/03/15 10:17:01;;;;;;;19.37;11.45;;;;;;;18.57;19.02;101361.84;4471490;32;33373;-77
2022/03/15 10:19:30;;;;;;;31.23;14.70;;;;;;;18.66;19.18;101371.66;4471363;32;33802;-76
2022/03/15 10:21:58;;;;;;;21.33;14.20;;;;;;;18.92;19.34;101367.88;4471434;32;34511;-80
2022/03/15 10:24:28;;;;;;;27.25;13.77;;;;;;;18.88;18.46;101355.47;4484096;32;34560;-79
2022/03/15 10:27:06;;;;;;;22.30;13.05;;;;;;;19.00;19.87;101350.91;4458383;32;32613;-78
2022/03/15 10:29:36;;;;;;;27.70;10.82;;;;;;;18.54;19.33;101362.28;4470879;32;32278;-78
2022/03/15 10:32:04;;;;;;;41.75;23.17;;;;;;;18.60;19.65;101358.63;4471490;32;33185;-76
2022/03/15 10:34:31;;;;;;;28.38;16.98;;;;;;;19.11;24.52;101355.78;4468327;32;33423;-76
2022/03/15 10:37:03;;;;;;;31.62;14.68;;;;;;;19.08;21.65;101339.53;4467460;31;33426;-76
2022/03/15 10:39:33;;;;;;;29.83;11.00;;;;;;;19.59;20.81;101328.19;4464422;32;33616;-76
2022/03/15 10:42:04;;;;;;;22.40;12.30;;;;;;;18.78;19.67;101330.09;4477468;32;34221;-76
2022/03/15 10:44:36;;;;;;;21.95;13.38;;;;;;;19.09;20.33;101317.03;4470831;32;33973;-76
2022/03/15 10:47:06;;;;;;;19.35;12.23;;;;;;;19.33;18.66;101318.13;4471068;32;33022;-77
2022/03/15 10:49:55;;;;;;;18.67;11.40;;;;;;;19.35;19.40;101317.91;4464568;32;33176;-79
2022/03/15 10:52:33;;;;;;;20.95;11.88;;;;;;;18.05;20.01;101308.19;4480182;31;34410;-76
2022/03/15 10:55:22;;;;;;;24.77;15.23;;;;;;;18.13;20.16;101301.53;4461752;32;34217;-81
2022/03/15 10:57:52;;;;;;;26.80;15.38;;;;;;;17.95;21.51;101299.44;4462048;32;119674;-80
2022/03/15 11:00:26;;;;;;;15.93;11.43;;;;;;;18.18;21.99;101301.72;4452164;32;32915;-81
2022/03/15 11:02:55;;;;;;;17.40;11.07;;;;;;;18.35;20.71;101286.22;4471737;32;34309;-81
2022/03/15 11:05:32;;;;;;;17.40;10.40;;;;;;;18.02;19.93;101275.28;4466197;31;32782;-80
2022/03/15 11:08:08;;;;;;;17.42;10.65;;;;;;;18.53;19.46;101274.37;4484432;32;33149;-81
2022/03/15 11:10:38;;;;;;;16.30;9.48;;;;;;;18.03;19.38;101269.50;4484436;32;33771;-80
2022/03/15 11:13:17;;;;;;;16.60;10.02;;;;;;;18.06;19.93;101265.44;4471359;32;32920;-79
2022/03/15 11:15:47;;;;;;;14.80;9.75;;;;;;;17.57;19.29;101258.47;4484211;32;33804;-78
2022/03/15 11:18:18;;;;;;;16.40;9.55;;;;;;;18.31;22.22;101246.06;4471382;32;31618;-80
2022/03/15 11:20:53;;;;;;;15.07;9.80;;;;;;;18.55;19.26;101234.16;4471430;32;31994;-80
2022/03/15 11:23:23;;;;;;;16.20;9.60;;;;;;;18.41;19.82;101226.97;4484214;32;35219;-80
2022/03/15 11:26:04;;;;;;;19.30;13.62;;;;;;;18.35;18.78;101236.19;4459165;32;32465;-79
2022/03/15 11:28:36;;;;;;;18.75;11.90;;;;;;;18.70;18.82;101228.31;4485307;32;34035;-79